Terminal Aerodrome Forecast
Issued by NWS

Home | Current Version | Previous Version | Text Only | Print | Product List | Glossary On
Versions: 1 2 3 4 5 6 7 8 9 10 11 12 13 14 15 16 17 18 19 20 21 22 23
000
FTUS46 KSEW 010000 AAB
TAFPAE
TAF AMD
KPAE 010049Z 0101/0124 VRB03KT 4SM BR BKN003 BKN100 OVC200
      TEMPO 0101/0103 1/2SM FG VV002
     FM010300 VRB03KT 5SM BR BKN006 BKN100 OVC200
     FM010600 VRB03KT P6SM SCT050 OVC100
     FM011200 14008KT P6SM -RA SCT030 OVC050
     FM011800 17013KT 5SM -RA BR SCT018 OVC030
     FM012000 17013KT 5SM -RA BR OVC018=

USA.gov is the U.S. government's official web portal to all federal, state and local government web resources and services.